Terminal Aerodrome Forecast
Issued by NWS

Current Version | Previous Version | Text Only | Print | Product List | Glossary Off
Versions: 1 2 3 4 5 6 7 8 9 10 11 12 13 14

000
FTUS41 KPBZ 311132
TAFHLG
TAF
KHLG 311132Z 3112/0112 21004KT 5SM BR SKC
     FM311300 25005KT P6SM SCT040
     FM010800 00000KT 2SM BR SKC=

USA.gov is the U.S. government's official web portal to all federal, state and local government web resources and services.